createdAt,value
2018-04-13T00:00:22.650Z,"    0"
2018-04-13T00:05:21.336Z,"    0"
2018-04-13T00:10:21.149Z,"    0"
2018-04-13T00:15:20.720Z,"    0"
2018-04-13T00:20:15.438Z,"    0"
2018-04-13T00:25:15.962Z,"    0"
2018-04-13T00:30:11.868Z,"    0"
2018-04-13T00:35:08.608Z,"    0"
2018-04-13T00:40:04.379Z,"    0"
2018-04-13T00:45:04.707Z,"    0"
2018-04-13T00:50:03.450Z,"    0"
2018-04-13T00:55:00.442Z,"    0"
2018-04-13T01:00:00.418Z,"    0"
2018-04-13T01:04:59.657Z,"    0"
2018-04-13T01:09:58.204Z,"    0"
2018-04-13T01:14:53.999Z,"    0"
2018-04-13T01:19:49.468Z,"    0"
2018-04-13T01:24:45.321Z,"    0"
2018-04-13T01:29:46.812Z,"    0"
2018-04-13T01:34:42.693Z,"    0"
2018-04-13T01:39:42.119Z,"    0"
2018-04-13T01:44:41.154Z,"    0"
2018-04-13T01:49:40.398Z,"    0"
2018-04-13T01:54:39.740Z,"    0"
2018-04-13T01:59:35.920Z,"    0"
2018-04-13T02:04:31.094Z,"    0"
2018-04-13T02:09:30.901Z,"    0"
2018-04-13T02:14:29.830Z,"    0"
2018-04-13T02:19:29.637Z,"    0"
2018-04-13T02:24:24.399Z,"    0"
2018-04-13T02:29:20.890Z,"    0"
2018-04-13T02:34:21.237Z,"    0"
2018-04-13T02:39:20.158Z,"    0"
2018-04-13T02:44:20.692Z,"    0"
2018-04-13T02:49:19.386Z,"    0"
2018-04-13T02:54:14.420Z,"    0"
2018-04-13T02:59:15.338Z,"    0"
2018-04-13T03:04:09.949Z,"    0"
2018-04-13T03:09:05.787Z,"    0"
2018-04-13T03:14:01.218Z,"    0"
2018-04-13T03:19:01.111Z,"    0"
2018-04-13T03:23:56.006Z,"    0"
2018-04-13T03:28:52.935Z,"    0"
2018-04-13T03:33:48.932Z,"    0"
2018-04-13T03:38:49.780Z,"    0"
2018-04-13T03:43:44.743Z,"    0"
2018-04-13T03:48:42.110Z,"    0"
2018-04-13T03:53:38.351Z,"    0"
2018-04-13T03:58:39.060Z,"    0"
2018-04-13T04:03:34.197Z,"    0"
2018-04-13T04:08:30.142Z,"    4"
2018-04-13T04:13:27.047Z,"    4"
2018-04-13T04:18:22.802Z,"    8"
2018-04-13T04:23:22.727Z,"   20"
2018-04-13T04:28:19.080Z,"   44"
2018-04-13T04:33:15.642Z,"   76"
2018-04-13T04:38:12.579Z,"  132"
2018-04-13T04:43:08.109Z,"  224"
2018-04-13T04:48:09.027Z,"  352"
2018-04-13T04:53:07.817Z,"  492"
2018-04-13T04:58:03.007Z,"  604"
2018-04-13T05:03:03.838Z,"  744"
2018-04-13T05:08:03.511Z,"  940"
2018-04-13T05:13:03.680Z," 1048"
2018-04-13T05:18:02.409Z," 1244"
2018-04-13T05:23:02.165Z," 1432"
2018-04-13T05:28:01.164Z," 1628"
2018-04-13T05:33:00.918Z," 1800"
2018-04-13T05:37:56.810Z," 1944"
2018-04-13T05:42:56.821Z," 2088"
2018-04-13T05:47:52.061Z," 2760"
2018-04-13T05:52:53.556Z," 3132"
2018-04-13T05:57:53.058Z," 3508"
2018-04-13T06:02:47.950Z," 3884"
2018-04-13T06:07:45.399Z," 4716"
2018-04-13T06:12:41.769Z," 4772"
2018-04-13T06:17:42.744Z," 5332"
2018-04-13T06:22:41.833Z," 4860"
2018-04-13T06:27:40.872Z," 4348"
2018-04-13T06:32:40.726Z," 7284"
2018-04-13T06:37:37.471Z," 4264"
2018-04-13T06:42:36.935Z," 2080"
2018-04-13T06:47:36.968Z," 3788"
2018-04-13T06:52:37.547Z," 4036"
2018-04-13T06:57:37.184Z," 5708"
2018-04-13T07:02:40.062Z," 7428"
2018-04-13T07:07:40.749Z," 7684"
2018-04-13T07:12:38.712Z," 8052"
2018-04-13T07:17:39.540Z," 8816"
2018-04-13T07:22:38.623Z," 8496"
2018-04-13T07:27:39.900Z," 8536"
2018-04-13T07:32:39.593Z," 7860"
2018-04-13T07:42:42.236Z," 8524"
2018-04-13T07:47:42.233Z," 8700"
2018-04-13T07:52:41.158Z," 8712"
2018-04-13T07:57:40.905Z," 9104"
2018-04-13T08:12:46.592Z," 9464"
2018-04-13T08:17:44.517Z," 9088"
2018-04-13T08:32:54.353Z," 9124"
2018-04-13T08:37:54.520Z," 8920"
2018-04-13T08:47:59.342Z," 7268"
2018-04-13T08:53:00.083Z," 6960"
2018-04-13T08:58:03.994Z," 7028"
2018-04-13T09:08:08.024Z," 6336"
2018-04-13T09:13:09.613Z," 7768"
2018-04-13T09:18:10.732Z," 9940"
2018-04-13T09:23:09.918Z,13016
2018-04-13T09:33:13.856Z,13728
2018-04-13T09:38:16.643Z,13756
2018-04-13T09:43:12.157Z,14240
2018-04-13T09:48:12.402Z,17344
2018-04-13T09:53:13.176Z,19104
2018-04-13T09:58:09.472Z,16512
2018-04-13T10:03:10.285Z,16448
2018-04-13T10:08:05.607Z,14856
2018-04-13T10:13:05.506Z,10444
2018-04-13T10:18:01.279Z,10616
2018-04-13T10:23:00.858Z,11008
2018-04-13T10:27:55.804Z,11580
2018-04-13T10:32:51.586Z," 9972"
2018-04-13T10:37:48.601Z," 9432"
2018-04-13T10:42:50.316Z,10116
2018-04-13T10:47:46.201Z," 9692"
2018-04-13T10:52:47.787Z,11180
2018-04-13T10:57:43.725Z,12244
2018-04-13T11:02:39.953Z,12856
2018-04-13T11:07:37.142Z,12552
2018-04-13T11:12:41.106Z,11528
2018-04-13T11:17:38.038Z," 9456"
2018-04-13T11:22:37.653Z," 9140"
2018-04-13T11:27:36.885Z," 9916"
2018-04-13T11:32:38.077Z,10284
2018-04-13T11:37:33.048Z,10112
2018-04-13T11:42:34.852Z," 9188"
2018-04-13T11:47:29.481Z," 8288"
2018-04-13T11:52:25.514Z," 7096"
2018-04-13T11:57:22.783Z," 6500"
2018-04-13T12:02:22.445Z," 5220"
2018-04-13T12:07:24.891Z," 3560"
2018-04-13T12:12:23.565Z," 3020"
2018-04-13T12:17:22.111Z," 2848"
2018-04-13T12:22:22.474Z," 2592"
2018-04-13T12:27:18.365Z," 2956"
2018-04-13T12:32:19.962Z," 3716"
2018-04-13T12:37:19.783Z," 4424"
2018-04-13T12:42:20.012Z," 3788"
2018-04-13T12:47:18.672Z," 2952"
2018-04-13T12:52:17.585Z," 2568"
2018-04-13T12:57:18.559Z," 2716"
2018-04-13T13:02:17.431Z," 3708"
2018-04-13T13:07:17.648Z," 4348"
2018-04-13T13:12:17.548Z," 5188"
2018-04-13T13:17:17.736Z," 5100"
2018-04-13T13:22:18.238Z," 5816"
2018-04-13T13:27:19.344Z," 6028"
2018-04-13T13:32:20.144Z," 5632"
2018-04-13T13:37:18.955Z," 5672"
2018-04-13T13:42:14.252Z," 5828"
2018-04-13T13:47:11.154Z," 6612"
2018-04-13T13:52:06.731Z," 6312"
2018-04-13T13:57:03.133Z," 6120"
2018-04-13T14:01:59.171Z," 5104"
2018-04-13T14:06:55.948Z," 4552"
2018-04-13T14:11:51.670Z," 4720"
2018-04-13T14:16:49.090Z," 5084"
2018-04-13T14:21:49.831Z," 5416"
2018-04-13T14:26:49.580Z," 4672"
2018-04-13T14:31:48.099Z," 3600"
2018-04-13T14:36:45.386Z," 4164"
2018-04-13T14:41:45.735Z," 5188"
2018-04-13T14:46:42.655Z," 6328"
2018-04-13T14:51:38.836Z," 5932"
2018-04-13T14:56:40.534Z," 5016"
2018-04-13T15:01:35.616Z," 4028"
2018-04-13T15:06:35.387Z," 3728"
2018-04-13T15:11:32.534Z," 3984"
2018-04-13T15:16:28.304Z," 4164"
2018-04-13T15:21:25.236Z," 3892"
2018-04-13T15:26:20.644Z," 3668"
2018-04-13T15:31:17.565Z," 4960"
2018-04-13T15:36:19.198Z," 5204"
2018-04-13T15:41:14.828Z," 5000"
2018-04-13T15:46:10.482Z," 3960"
2018-04-13T15:51:10.310Z," 3680"
2018-04-13T15:56:05.130Z," 3208"
2018-04-13T16:01:00.738Z," 2816"
2018-04-13T16:05:57.446Z," 2692"
2018-04-13T16:10:58.329Z," 2788"
2018-04-13T16:15:54.423Z," 2704"
2018-04-13T16:20:50.191Z," 2324"
2018-04-13T16:25:50.209Z," 2132"
2018-04-13T16:30:45.203Z," 2032"
2018-04-13T16:35:46.252Z," 1928"
2018-04-13T16:40:41.005Z," 1688"
2018-04-13T16:45:37.897Z," 1344"
2018-04-13T16:50:34.600Z," 1088"
2018-04-13T16:55:31.648Z,"  920"
2018-04-13T17:00:32.182Z,"  832"
2018-04-13T17:05:31.745Z,"  760"
2018-04-13T17:10:28.674Z,"  728"
2018-04-13T17:15:28.219Z,"  648"
2018-04-13T17:20:23.477Z,"  552"
2018-04-13T17:25:23.601Z,"  432"
2018-04-13T17:30:18.695Z,"  348"
2018-04-13T17:35:15.876Z,"  316"
2018-04-13T17:40:11.535Z,"  300"
2018-04-13T17:45:07.161Z,"  248"
2018-04-13T17:50:04.085Z,"  240"
2018-04-13T17:55:05.990Z,"  220"
2018-04-13T18:00:01.561Z,"  196"
2018-04-13T18:05:01.088Z,"  168"
2018-04-13T18:09:59.935Z,"  124"
2018-04-13T18:14:56.367Z,"   84"
2018-04-13T18:19:52.060Z,"   56"
2018-04-13T18:24:47.917Z,"   36"
2018-04-13T18:29:43.895Z,"   24"
2018-04-13T18:34:39.714Z,"   16"
2018-04-13T18:39:40.541Z,"    8"
2018-04-13T18:44:36.263Z,"    4"
2018-04-13T18:49:31.684Z,"    0"
2018-04-13T18:54:27.016Z,"    0"
2018-04-13T18:59:26.884Z,"    0"
2018-04-13T19:04:22.229Z,"    0"
2018-04-13T19:09:19.497Z,"    0"
2018-04-13T19:14:15.019Z,"    0"
2018-04-13T19:19:12.030Z,"    0"
2018-04-13T19:24:12.518Z,"    0"
2018-04-13T19:29:08.236Z,"    0"
2018-04-13T19:34:03.599Z,"    0"
2018-04-13T19:39:00.456Z,"    0"
2018-04-13T19:43:56.980Z,"    0"
2018-04-13T19:48:53.855Z,"    0"
2018-04-13T19:53:50.839Z,"    0"
2018-04-13T19:58:51.336Z,"    0"
2018-04-13T20:03:47.269Z,"    0"
2018-04-13T20:08:42.830Z,"    0"
2018-04-13T20:13:39.738Z,"    0"
2018-04-13T20:18:39.343Z,"    0"
2018-04-13T20:23:39.057Z,"    0"
2018-04-13T20:28:37.900Z,"    0"
2018-04-13T20:33:34.218Z,"    0"
2018-04-13T20:38:30.529Z,"    0"
2018-04-13T20:43:27.141Z,"    0"
2018-04-13T20:48:22.527Z,"    0"
2018-04-13T20:53:18.759Z,"    0"
2018-04-13T20:58:18.986Z,"    0"
2018-04-13T21:03:18.827Z,"    0"
2018-04-13T21:08:15.121Z,"    0"
2018-04-13T21:13:14.495Z,"    0"
2018-04-13T21:18:13.463Z,"    0"
2018-04-13T21:23:13.769Z,"    0"
2018-04-13T21:28:13.545Z,"    0"
2018-04-13T21:33:09.297Z,"    0"
2018-04-13T21:38:05.797Z,"    0"
2018-04-13T21:43:02.711Z,"    0"
2018-04-13T21:47:58.284Z,"    0"
2018-04-13T21:52:58.563Z,"    0"
2018-04-13T21:57:53.781Z,"    0"
2018-04-13T22:02:50.580Z,"    0"
2018-04-13T22:07:45.941Z,"    0"
2018-04-13T22:12:42.072Z,"    0"
2018-04-13T22:17:37.877Z,"    0"
2018-04-13T22:22:37.771Z,"    0"
2018-04-13T22:27:33.025Z,"    0"
2018-04-13T22:32:32.463Z,"    0"
2018-04-13T22:37:31.250Z,"    0"
2018-04-13T22:42:32.764Z,"    0"
2018-04-13T22:47:27.479Z,"    0"
2018-04-13T22:52:23.254Z,"    0"
2018-04-13T22:57:18.995Z,"    0"
2018-04-13T23:02:19.837Z,"    0"
2018-04-13T23:07:16.219Z,"    0"
2018-04-13T23:12:11.637Z,"    0"
2018-04-13T23:17:07.722Z,"    0"
2018-04-13T23:22:03.585Z,"    0"
2018-04-13T23:27:03.249Z,"    0"
2018-04-13T23:32:02.364Z,"    0"
2018-04-13T23:36:58.309Z,"    0"
2018-04-13T23:41:57.750Z,"    0"
2018-04-13T23:46:53.765Z,"    0"
2018-04-13T23:51:54.163Z,"    0"
2018-04-13T23:56:48.777Z,"    0"
